Vores vejrinfo findes også på:

UK Metoffice

European Weather Network

Weather Underground



Stationer ""tæt på"" METAR Rapporter

   
EKEB - Esbjerg, Denmark
Afstand fra denne vejrstation: NNV 29 km
Opdateret: 19-11-2019 19:50
Overskyet  
Overskyet  
   Vind fra: Vest 5.7 m/s
Vind fra: Vest 5.7 m/s
Temperatur: 8°C
Chill faktor: 5°C
Dugpunkt: 6°C
Luftfugtighed: 87%
Barometer: 1013 hPa
Skyer: Overskyet
Sigtbarhed: More than 10 km
Sky detaljer: Overskyet 2700 ft
EKEB 191850Z AUTO 27011KT 9999 OVC027/// 08/06 Q1013
EKSP - Skrydstrup(Dan-A, Denmark
Afstand fra denne vejrstation: Ø 35 km
Opdateret: 19-11-2019 19:50
Mest overskyet  
Mest overskyet  
   Vind fra: SV 5.1 m/s
Vind fra: SV 5.1 m/s
Temperatur: 7°C
Chill faktor: 4°C
Dugpunkt: 7°C
Luftfugtighed: 100%
Barometer: 1013 hPa
Skyer: Mest overskyet
Sigtbarhed: More than 10 km
Sky detaljer: Få skyer 2100 ft,
Mest overskyet 3100 ft,
Mest overskyet 8500 ft
EKSP 191850Z 23010KT 9999 FEW021 BKN031 BKN085 07/07 Q1013
EKBI - Billund Airport, Denmark
Afstand fra denne vejrstation: NNØ 56 km
Opdateret: 19-11-2019 19:50
Tåge, Overskyet  
Tåge, Overskyet  
   Vind fra: VSV 4.1 m/s
Vind fra: VSV 4.1 m/s
Temperatur: 8°C
Chill faktor: 6°C
Dugpunkt: 7°C
Luftfugtighed: 93%
Barometer: 1012 hPa
Skyer: Overskyet
Sigtbarhed: 4 km
Sky detaljer: Overskyet 500 ft
EKBI 191850Z AUTO 24008KT 200V270 3800 BR OVC005/// 08/07 Q1012
EKSB - Sonderborg Airpo, Denmark
Afstand fra denne vejrstation: ØSØ 76 km
Opdateret: 19-11-2019 19:50
Let regn, Regn, Mest overskyet  
Let regn, Regn, Mest overskyet  
   Vind fra: VSV 4.6 m/s
Vind fra: VSV 4.6 m/s
Temperatur: 8°C
Chill faktor: 5°C
Dugpunkt: 6°C
Luftfugtighed: 87%
Barometer: 1014 hPa
Skyer: Mest overskyet
Sigtbarhed: More than 10 km
Sky detaljer: Mest overskyet 2200 ft
EKSB 191850Z 24009KT 210V270 9999 -SHRA BKN022 08/06 Q1014
EKVD - Vamdrup (aut/man), Denmark
Afstand fra denne vejrstation: ØNØ 41 km
Opdateret: 19-11-2019 19:50
  
  
   Vind fra: VSV 5.1 m/s
Vind fra: VSV 5.1 m/s
Temperatur: 8°C
Chill faktor: 5°C
Dugpunkt: 7°C
Luftfugtighed: 93%
Barometer: 1013 hPa
EKVD 191850Z AUTO 24010KT //// ///////// 08/07 Q1013
EDXW - Westerland/Sylt, Germany
Afstand fra denne vejrstation: SSV 47 km
Opdateret: 19-11-2019 15:20
Data er IKKE opdaterede!
Nearby Showers, Mest overskyet  
Nearby Showers, Mest overskyet  
   Vind fra: Vest 9.3 m/s
Vind fra: Vest 9.3 m/s
Temperatur: 8°C
Chill faktor: 4°C
Dugpunkt: 8°C
Luftfugtighed: 100%
Barometer: 1010 hPa
Skyer: Mest overskyet
Sigtbarhed: More than 10 km
Sky detaljer: Få skyer 1400 ft,
Delvis overskyet 3700 ft,
Mest overskyet 4600 ft
EDXW 191420Z 26018KT 9999 VCSH FEW014 SCT037TCU BKN046 08/08 Q1010 RESHRA

Original script by  Saratoga-weather.org Adapted for the template by  Weerstation Leuven

Der anvendes følgende:

Vejrstation
Davis VP2

Vejrprogram
Meteohub

Server
RaspberryPI 3 model B

Davis VP2

Meteohub

RaspberryPI 3 model B